Terminal Aerodrome Forecast
Issued by NWS Shreveport, LA

Home | Current Version | Previous Version | Text Only | Print | Product List | Glossary On
Versions: 1 2 3 4 5 6 7 8 9 10 11 12 13 14 15 16 17 18 19 20 21 22 23
000
FTUS44 KSHV 271156
TAFTYR
TAF
KTYR 271156Z 2712/2812 08013G19KT P6SM VCSH OVC015
     FM271400 09014G20KT 6SM BR VCSH BKN010 OVC020
     FM271700 09012G18KT 5SM -SHRA VCTS BKN015CB OVC025
     FM272000 09011KT 2SM TSRA OVC007CB
     FM280000 06012KT 5SM -TSRA BKN010CB OVC020
     FM280300 03007KT 2SM BR OVC007
     FM280900 01006KT 4SM BR OVC004=

USA.gov is the U.S. government's official web portal to all federal, state and local government web resources and services.